createdAt,value
2018-03-02T00:01:58.511Z,9.70
2018-03-02T00:04:01.183Z,10.23
2018-03-02T00:06:03.878Z,12.10
2018-03-02T00:08:06.566Z,11.43
2018-03-02T00:10:09.241Z,12.20
2018-03-02T00:12:11.926Z,12.53
2018-03-02T00:14:15.425Z,11.10
2018-03-02T00:16:18.864Z,10.30
2018-03-02T00:18:21.545Z,10.83
2018-03-02T00:20:24.199Z,12.80
2018-03-02T00:22:26.847Z,12.30
2018-03-02T00:24:30.497Z,11.13
2018-03-02T00:26:33.216Z,10.70
2018-03-02T00:28:36.652Z,9.60
2018-03-02T00:30:39.360Z,12.37
2018-03-02T00:32:42.042Z,11.77
2018-03-02T00:34:44.724Z,12.73
2018-03-02T00:36:47.380Z,11.03
2018-03-02T00:38:50.062Z,10.17
2018-03-02T00:40:52.736Z,11.10
2018-03-02T00:42:55.411Z,12.43
2018-03-02T00:44:58.118Z,10.87
2018-03-02T00:47:01.566Z,11.53
2018-03-02T00:49:04.328Z,9.67
2018-03-02T00:51:06.982Z,11.80
2018-03-02T00:53:10.404Z,13.57
2018-03-02T00:55:13.135Z,12.57
2018-03-02T00:57:15.801Z,12.57
2018-03-02T00:59:18.671Z,12.13
2018-03-02T01:01:21.351Z,12.53
2018-03-02T01:03:24.044Z,11.77
2018-03-02T01:05:26.721Z,13.17
2018-03-02T01:07:30.156Z,10.47
2018-03-02T01:09:32.801Z,11.87
2018-03-02T01:11:36.275Z,11.70
2018-03-02T01:13:39.093Z,11.53
2018-03-02T01:15:41.768Z,13.43
2018-03-02T01:17:44.435Z,11.47
2018-03-02T01:19:47.096Z,12.60
2018-03-02T01:21:50.566Z,12.70
2018-03-02T01:23:53.217Z,13.67
2018-03-02T01:25:55.916Z,13.17
2018-03-02T01:27:59.476Z,11.10
2018-03-02T01:30:02.149Z,11.10
2018-03-02T01:32:05.220Z,12.97
2018-03-02T01:34:07.893Z,10.70
2018-03-02T01:36:10.592Z,8.70
2018-03-02T01:38:13.262Z,12.63
2018-03-02T01:40:15.919Z,12.97
2018-03-02T01:42:19.453Z,11.80
2018-03-02T01:44:22.125Z,13.10
2018-03-02T01:46:24.836Z,13.13
2018-03-02T01:48:27.492Z,12.07
2018-03-02T01:50:30.920Z,11.50
2018-03-02T01:52:34.375Z,10.77
2018-03-02T01:54:37.042Z,9.77
2018-03-02T01:56:39.692Z,12.07
2018-03-02T01:58:42.408Z,14.13
2018-03-02T02:00:45.324Z,13.53
2018-03-02T02:02:48.789Z,13.00
2018-03-02T02:04:51.441Z,13.73
2018-03-02T02:06:54.161Z,11.93
2018-03-02T02:08:56.880Z,12.93
2018-03-02T02:10:59.589Z,13.10
2018-03-02T02:13:02.263Z,11.60
2018-03-02T02:15:05.151Z,10.63
2018-03-02T02:17:07.813Z,12.20
2018-03-02T02:19:10.510Z,13.73
2018-03-02T02:21:13.211Z,12.37
2018-03-02T02:23:15.887Z,13.40
2018-03-02T02:25:18.567Z,13.80
2018-03-02T02:27:22.108Z,12.67
2018-03-02T02:29:24.992Z,12.47
2018-03-02T02:31:27.645Z,12.70
2018-03-02T02:33:30.328Z,14.40
2018-03-02T02:35:33.022Z,13.43
2018-03-02T02:37:35.751Z,13.50
2018-03-02T02:39:39.282Z,12.70
2018-03-02T02:41:41.959Z,12.40
2018-03-02T02:43:44.648Z,12.60
2018-03-02T02:45:47.299Z,13.17
2018-03-02T02:47:49.953Z,13.10
2018-03-02T02:49:53.398Z,13.33
2018-03-02T02:51:56.064Z,13.40
2018-03-02T02:53:58.732Z,9.87
2018-03-02T02:56:01.444Z,15.77
2018-03-02T02:58:04.105Z,13.57
2018-03-02T03:00:06.814Z,13.70
2018-03-02T03:02:09.489Z,13.87
2018-03-02T03:04:12.135Z,13.80
2018-03-02T03:06:15.600Z,11.93
2018-03-02T03:08:18.253Z,15.67
2018-03-02T03:10:20.958Z,13.40
2018-03-02T03:12:23.607Z,10.37
2018-03-02T03:14:27.059Z,13.20
2018-03-02T03:16:29.730Z,13.03
2018-03-02T03:18:32.515Z,14.73
2018-03-02T03:20:35.212Z,13.90
2018-03-02T03:22:37.862Z,14.73
2018-03-02T03:24:40.627Z,14.90
2018-03-02T03:26:43.310Z,15.10
2018-03-02T03:28:45.961Z,14.93
2018-03-02T03:30:48.859Z,14.40
2018-03-02T03:32:51.544Z,14.43
2018-03-02T03:34:54.203Z,13.93
2018-03-02T03:36:56.880Z,13.80
2018-03-02T03:38:59.559Z,16.37
2018-03-02T03:41:02.273Z,12.57
2018-03-02T03:43:05.088Z,14.80
2018-03-02T03:45:07.757Z,15.20
2018-03-02T03:47:11.206Z,14.17
2018-03-02T03:49:13.888Z,14.83
2018-03-02T03:51:16.589Z,15.90
2018-03-02T03:53:20.062Z,15.43
2018-03-02T03:55:22.714Z,15.73
2018-03-02T03:57:25.423Z,14.17
2018-03-02T03:59:28.086Z,13.90
2018-03-02T04:01:30.902Z,13.17
2018-03-02T04:03:34.352Z,15.17
2018-03-02T04:05:37.046Z,14.40
2018-03-02T04:07:39.751Z,12.97
2018-03-02T04:09:43.181Z,13.93
2018-03-02T04:11:45.843Z,13.90
2018-03-02T04:13:48.578Z,13.90
2018-03-02T04:15:51.232Z,13.40
2018-03-02T04:17:53.927Z,14.70
2018-03-02T04:19:57.054Z,14.57
2018-03-02T04:21:59.731Z,16.70
2018-03-02T04:24:02.496Z,13.07
2018-03-02T04:26:05.953Z,15.20
2018-03-02T04:28:08.671Z,14.80
2018-03-02T04:30:11.354Z,16.70
2018-03-02T04:32:14.011Z,15.87
2018-03-02T04:34:17.460Z,14.57
2018-03-02T04:36:20.205Z,16.50
2018-03-02T04:38:22.892Z,14.70
2018-03-02T04:40:25.577Z,16.60
2018-03-02T04:42:28.265Z,15.10
2018-03-02T04:44:30.962Z,15.63
2018-03-02T04:46:33.639Z,16.33
2018-03-02T04:48:36.312Z,17.23
2018-03-02T04:50:39.009Z,14.43
2018-03-02T04:52:42.448Z,15.37
2018-03-02T04:54:45.193Z,15.00
2018-03-02T04:56:48.921Z,17.40
2018-03-02T04:58:51.584Z,14.40
2018-03-02T05:00:54.376Z,14.77
2018-03-02T05:02:57.038Z,15.67
2018-03-02T05:04:59.764Z,15.87
2018-03-02T05:07:02.541Z,16.37
2018-03-02T05:09:05.241Z,15.23
2018-03-02T05:11:08.372Z,15.10
2018-03-02T05:13:11.112Z,14.80
2018-03-02T05:15:14.633Z,16.67
2018-03-02T05:17:17.320Z,15.17
2018-03-02T05:19:20.187Z,15.37
2018-03-02T05:21:22.938Z,16.23
2018-03-02T05:23:26.368Z,17.00
2018-03-02T05:25:29.076Z,12.53
2018-03-02T05:27:31.759Z,14.70
2018-03-02T05:29:34.434Z,17.23
2018-03-02T05:31:37.945Z,18.13
2018-03-02T05:33:40.892Z,16.57
2018-03-02T05:35:43.626Z,15.83
2018-03-02T05:37:47.058Z,16.40
2018-03-02T05:39:49.749Z,16.63
2018-03-02T05:41:52.446Z,18.10
2018-03-02T05:43:55.144Z,16.43
2018-03-02T05:45:58.591Z,14.50
2018-03-02T05:48:01.304Z,12.47
2018-03-02T05:50:04.002Z,12.43
2018-03-02T05:52:08.561Z,13.07
2018-03-02T05:54:11.621Z,16.97
2018-03-02T05:56:14.379Z,15.30
2018-03-02T05:58:17.850Z,17.30
2018-03-02T06:00:20.553Z,18.00
2018-03-02T06:02:24.029Z,17.90
2018-03-02T06:04:26.751Z,16.33
2018-03-02T06:06:29.423Z,15.27
2018-03-02T06:08:32.220Z,18.53
2018-03-02T06:10:38.072Z,17.47
2018-03-02T06:12:40.966Z,17.27
2018-03-02T06:14:44.565Z,19.23
2018-03-02T06:16:48.394Z,18.43
2018-03-02T06:18:51.106Z,18.53
2018-03-02T06:20:53.816Z,17.33
2018-03-02T06:22:56.518Z,17.10
2018-03-02T06:24:59.234Z,17.57
2018-03-02T06:27:02.050Z,16.20
2018-03-02T06:29:04.732Z,16.57
2018-03-02T06:31:07.413Z,15.00
2018-03-02T06:33:10.105Z,16.80
2018-03-02T06:35:14.873Z,16.70
2018-03-02T06:37:17.561Z,14.47
2018-03-02T06:39:20.256Z,18.30
2018-03-02T06:41:22.956Z,16.80
2018-03-02T06:43:25.646Z,17.73
2018-03-02T06:45:28.325Z,18.10
2018-03-02T06:47:31.771Z,18.63
2018-03-02T06:49:34.496Z,16.03
2018-03-02T06:51:38.020Z,17.70
2018-03-02T06:53:41.122Z,18.63
2018-03-02T06:55:43.857Z,18.20
2018-03-02T06:57:47.326Z,10.87
2018-03-02T06:59:50.031Z,19.73
2018-03-02T07:01:53.471Z,19.50
2018-03-02T07:03:56.156Z,18.57
2018-03-02T07:05:58.834Z,20.20
2018-03-02T07:08:02.296Z,16.40
2018-03-02T07:10:05.073Z,18.73
2018-03-02T07:12:07.753Z,19.50
2018-03-02T07:14:10.427Z,19.03
2018-03-02T07:16:13.143Z,19.37
2018-03-02T07:18:16.205Z,19.20
2018-03-02T07:20:18.922Z,16.80
2018-03-02T07:22:21.669Z,18.80
2018-03-02T07:24:24.350Z,18.77
2018-03-02T07:26:27.031Z,20.13
2018-03-02T07:28:29.701Z,21.20
2018-03-02T07:30:32.418Z,18.67
2018-03-02T07:32:35.165Z,19.30
2018-03-02T07:34:37.838Z,20.80
2018-03-02T07:36:40.533Z,20.43
2018-03-02T07:38:43.223Z,18.23
2018-03-02T07:40:45.911Z,20.83
2018-03-02T07:42:49.341Z,19.60
2018-03-02T07:44:51.993Z,21.03
2018-03-02T07:46:54.675Z,20.23
2018-03-02T07:48:57.348Z,20.03
2018-03-02T07:51:00.064Z,21.80
2018-03-02T07:53:02.858Z,21.87
2018-03-02T07:55:05.569Z,22.27
2018-03-02T07:57:09.031Z,22.90
2018-03-02T07:59:11.774Z,22.63
2018-03-02T08:01:14.464Z,23.47
2018-03-02T08:03:17.155Z,24.23
2018-03-02T08:05:19.827Z,24.60
2018-03-02T08:07:22.530Z,26.40
2018-03-02T08:09:25.229Z,25.80
2018-03-02T08:11:28.691Z,26.63
2018-03-02T08:13:31.544Z,25.40
2018-03-02T08:15:34.197Z,23.80
2018-03-02T08:17:36.923Z,23.93
2018-03-02T08:19:39.597Z,23.43
2018-03-02T08:21:42.406Z,24.03
2018-03-02T08:23:45.871Z,21.77
2018-03-02T08:25:48.617Z,21.50
2018-03-02T08:27:51.334Z,23.10
2018-03-02T08:29:54.031Z,23.90
2018-03-02T08:31:57.492Z,22.73
2018-03-02T08:34:00.174Z,23.47
2018-03-02T08:36:02.880Z,23.03
2018-03-02T08:38:06.360Z,23.37
2018-03-02T08:40:09.069Z,22.70
2018-03-02T08:42:11.731Z,23.60
2018-03-02T08:44:15.189Z,20.87
2018-03-02T08:46:17.914Z,24.20
2018-03-02T08:48:20.661Z,24.13
2018-03-02T08:50:23.529Z,24.50
2018-03-02T08:52:26.213Z,23.07
2018-03-02T08:54:28.930Z,25.53
2018-03-02T08:56:31.673Z,25.47
2018-03-02T08:58:34.813Z,23.47
2018-03-02T09:00:37.476Z,24.47
2018-03-02T09:02:40.165Z,23.83
2018-03-02T09:04:43.503Z,28.10
2018-03-02T09:06:46.185Z,25.67
2018-03-02T09:08:48.949Z,23.53
2018-03-02T09:10:51.653Z,22.40
2018-03-02T09:12:55.109Z,23.73
2018-03-02T09:14:57.876Z,24.97
2018-03-02T09:17:00.641Z,23.47
2018-03-02T09:19:03.388Z,25.50
2018-03-02T09:21:06.098Z,24.80
2018-03-02T09:23:08.806Z,23.50
2018-03-02T09:25:11.524Z,23.50
2018-03-02T09:27:14.198Z,25.10
2018-03-02T09:29:16.893Z,22.90
2018-03-02T09:31:19.571Z,22.47
2018-03-02T09:33:22.250Z,22.73
2018-03-02T09:35:24.953Z,23.57
2018-03-02T09:37:27.629Z,22.90
2018-03-02T09:39:30.324Z,25.10
2018-03-02T09:41:33.015Z,24.43
2018-03-02T09:43:36.548Z,25.33
2018-03-02T09:45:39.233Z,24.73
2018-03-02T09:47:41.910Z,24.17
2018-03-02T09:49:44.615Z,26.37
2018-03-02T09:51:47.281Z,25.70
2018-03-02T09:53:49.963Z,23.50
2018-03-02T09:55:52.660Z,23.67
2018-03-02T09:57:56.127Z,24.57
2018-03-02T09:59:58.830Z,24.73
2018-03-02T10:02:01.482Z,22.10
2018-03-02T10:04:04.231Z,26.13
2018-03-02T10:06:06.947Z,26.00
2018-03-02T10:08:09.636Z,25.77
2018-03-02T10:10:12.334Z,21.90
2018-03-02T10:12:15.778Z,23.70
2018-03-02T10:14:19.989Z,24.40
2018-03-02T10:16:23.163Z,23.03
2018-03-02T10:18:25.855Z,22.40
2018-03-02T10:20:28.533Z,24.27
2018-03-02T10:22:31.206Z,23.93
2018-03-02T10:24:33.882Z,24.67
2018-03-02T10:26:36.644Z,25.20
2018-03-02T10:28:39.322Z,25.03
2018-03-02T10:30:42.028Z,24.43
2018-03-02T10:32:44.930Z,19.40
2018-03-02T10:34:48.374Z,25.50
2018-03-02T10:36:51.066Z,24.63
2018-03-02T10:38:53.740Z,25.53
2018-03-02T10:40:56.603Z,26.20
2018-03-02T10:42:59.281Z,26.90
2018-03-02T10:45:02.046Z,25.50
2018-03-02T10:47:05.481Z,27.30
2018-03-02T10:49:08.176Z,25.30
2018-03-02T10:51:10.876Z,24.27
2018-03-02T10:53:14.330Z,24.80
2018-03-02T10:55:17.052Z,24.63
2018-03-02T10:57:19.735Z,25.87
2018-03-02T10:59:22.415Z,25.40
2018-03-02T11:01:26.052Z,24.20
2018-03-02T11:03:28.748Z,25.27
2018-03-02T11:05:37.048Z,24.80
2018-03-02T11:07:39.766Z,24.20
2018-03-02T11:09:42.456Z,23.30
2018-03-02T11:11:45.207Z,26.90
2018-03-02T11:13:48.654Z,26.03
2018-03-02T11:15:52.466Z,25.57
2018-03-02T11:17:55.224Z,25.47
2018-03-02T11:19:58.052Z,24.60
2018-03-02T11:22:01.036Z,26.73
2018-03-02T11:24:04.518Z,24.87
2018-03-02T11:26:07.224Z,27.90
2018-03-02T11:28:09.930Z,25.40
2018-03-02T11:30:12.707Z,24.97
2018-03-02T11:32:15.483Z,26.63
2018-03-02T11:34:18.220Z,24.30
2018-03-02T11:36:21.668Z,26.67
2018-03-02T11:38:24.424Z,24.40
2018-03-02T11:40:27.094Z,24.20
2018-03-02T11:42:29.772Z,25.53
2018-03-02T11:44:32.455Z,25.27
2018-03-02T11:46:35.127Z,27.20
2018-03-02T11:48:37.874Z,26.00
2018-03-02T11:50:41.303Z,27.17
2018-03-02T11:52:44.107Z,24.30
2018-03-02T11:54:46.787Z,26.57
2018-03-02T11:56:49.475Z,25.50
2018-03-02T11:58:52.199Z,23.07
2018-03-02T12:00:54.871Z,25.20
2018-03-02T12:02:57.545Z,25.40
2018-03-02T12:05:00.264Z,25.13
2018-03-02T12:07:03.066Z,26.23
2018-03-02T12:09:05.819Z,26.50
2018-03-02T12:11:08.544Z,24.37
2018-03-02T12:13:11.976Z,25.47
2018-03-02T12:15:14.671Z,26.10
2018-03-02T12:17:17.357Z,25.37
2018-03-02T12:19:20.049Z,25.63
2018-03-02T12:21:22.714Z,26.90
2018-03-02T12:23:25.452Z,25.90
2018-03-02T12:25:28.358Z,26.10
2018-03-02T12:27:31.006Z,25.90
2018-03-02T12:29:33.720Z,26.27
2018-03-02T12:31:36.390Z,26.03
2018-03-02T12:33:39.105Z,26.27
2018-03-02T12:35:41.782Z,25.77
2018-03-02T12:37:45.653Z,25.37
2018-03-02T12:39:48.364Z,26.10
2018-03-02T12:41:54.546Z,26.10
2018-03-02T12:43:57.264Z,23.97
2018-03-02T12:45:59.949Z,25.10
2018-03-02T12:48:02.941Z,24.73
2018-03-02T12:50:05.643Z,26.40
2018-03-02T12:52:09.091Z,27.00
2018-03-02T12:54:11.752Z,23.93
2018-03-02T12:56:14.479Z,26.40
2018-03-02T12:58:17.918Z,24.13
2018-03-02T13:00:20.657Z,26.27
2018-03-02T13:02:24.162Z,25.33
2018-03-02T13:04:26.835Z,23.80
2018-03-02T13:06:29.537Z,25.60
2018-03-02T13:08:32.208Z,23.77
2018-03-02T13:10:34.924Z,25.10
2018-03-02T13:12:37.589Z,24.30
2018-03-02T13:14:40.409Z,25.87
2018-03-02T13:16:43.858Z,23.90
2018-03-02T13:18:46.573Z,24.03
2018-03-02T13:20:49.252Z,24.87
2018-03-02T13:22:53.399Z,24.70
2018-03-02T13:24:56.081Z,22.83
2018-03-02T13:27:10.865Z,25.40
2018-03-02T13:29:14.047Z,23.87
2018-03-02T13:31:16.788Z,23.50
2018-03-02T13:33:31.595Z,25.07
2018-03-02T13:35:34.275Z,24.00
2018-03-02T13:37:37.410Z,25.37
2018-03-02T13:39:52.084Z,24.57
2018-03-02T13:42:01.489Z,23.93
2018-03-02T13:44:04.951Z,24.50
2018-03-02T13:46:07.609Z,26.00
2018-03-02T13:50:46.413Z,24.50
2018-03-02T13:52:49.621Z,24.80
2018-03-02T13:54:52.326Z,25.50
2018-03-02T13:57:07.017Z,24.30
2018-03-02T13:59:10.490Z,23.80
2018-03-02T14:01:13.182Z,24.67
2018-03-02T14:03:28.842Z,23.90
2018-03-02T14:05:31.670Z,25.17
2018-03-02T14:07:37.593Z,25.90
2018-03-02T14:09:43.567Z,25.60
2018-03-02T14:11:48.216Z,26.00
2018-03-02T14:13:51.625Z,24.57
2018-03-02T14:15:54.887Z,22.77
2018-03-02T14:17:57.725Z,25.33
2018-03-02T14:20:01.888Z,27.03
2018-03-02T14:22:04.799Z,24.63
2018-03-02T14:24:07.631Z,24.17
2018-03-02T14:26:11.373Z,28.03
2018-03-02T14:28:14.121Z,23.73
2018-03-02T14:30:16.843Z,26.60
2018-03-02T14:32:19.533Z,24.37
2018-03-02T14:34:22.177Z,24.17
2018-03-02T14:36:24.925Z,25.03
2018-03-02T14:38:27.610Z,24.70
2018-03-02T14:40:30.306Z,26.53
2018-03-02T14:42:32.999Z,25.40
2018-03-02T14:44:36.148Z,26.33
2018-03-02T14:46:38.892Z,25.17
2018-03-02T14:48:42.317Z,24.77
2018-03-02T14:50:45.057Z,26.57
2018-03-02T14:52:48.478Z,23.87
2018-03-02T14:54:51.135Z,24.27
2018-03-02T14:56:53.974Z,25.20
2018-03-02T14:58:56.637Z,25.50
2018-03-02T15:00:59.356Z,26.80
2018-03-02T15:03:02.041Z,25.10
2018-03-02T15:05:04.759Z,25.67
2018-03-02T15:07:07.650Z,27.90
2018-03-02T15:09:10.393Z,25.03
2018-03-02T15:11:14.704Z,25.50
2018-03-02T15:13:17.512Z,23.00
2018-03-02T15:15:20.571Z,25.80
2018-03-02T15:17:23.674Z,24.50
2018-03-02T15:19:27.918Z,27.27
2018-03-02T15:21:30.610Z,24.00
2018-03-02T15:23:34.151Z,18.90
2018-03-02T15:25:36.815Z,25.57
2018-03-02T15:27:39.580Z,24.37
2018-03-02T15:29:43.407Z,24.70
2018-03-02T15:31:46.294Z,25.70
2018-03-02T15:33:49.028Z,23.90
2018-03-02T15:35:51.680Z,27.67
2018-03-02T15:37:54.358Z,27.53
2018-03-02T15:39:57.053Z,25.90
2018-03-02T15:41:59.737Z,25.67
2018-03-02T15:44:02.435Z,23.67
2018-03-02T15:46:05.875Z,25.20
2018-03-02T15:48:08.671Z,23.97
2018-03-02T15:50:11.444Z,24.10
2018-03-02T15:52:14.130Z,25.97
2018-03-02T15:54:16.857Z,25.37
2018-03-02T15:56:19.577Z,24.80
2018-03-02T15:58:22.261Z,24.90
2018-03-02T16:00:24.926Z,25.23
2018-03-02T16:02:27.624Z,25.50
2018-03-02T16:04:31.058Z,25.83
2018-03-02T16:06:33.778Z,24.67
2018-03-02T16:08:36.644Z,25.33
2018-03-02T16:10:39.316Z,25.37
2018-03-02T16:12:41.969Z,25.10
2018-03-02T16:14:46.712Z,24.83
2018-03-02T16:16:49.395Z,24.93
2018-03-02T16:18:52.161Z,24.20
2018-03-02T16:20:54.810Z,24.07
2018-03-02T16:22:57.489Z,24.53
2018-03-02T16:25:00.166Z,22.93
2018-03-02T16:27:02.835Z,23.83
2018-03-02T16:29:05.510Z,24.20
2018-03-02T16:31:08.187Z,23.67
2018-03-02T16:33:10.851Z,24.07
2018-03-02T16:35:14.309Z,24.57
2018-03-02T16:37:16.994Z,23.20
2018-03-02T16:39:19.678Z,24.07
2018-03-02T16:41:22.333Z,24.13
2018-03-02T16:43:24.980Z,24.47
2018-03-02T16:45:27.796Z,24.63
2018-03-02T16:47:30.540Z,24.37
2018-03-02T16:49:33.225Z,24.03
2018-03-02T16:51:35.896Z,24.30
2018-03-02T16:53:38.537Z,21.03
2018-03-02T16:55:42.008Z,24.50
2018-03-02T16:57:44.737Z,23.83
2018-03-02T16:59:47.400Z,25.07
2018-03-02T17:01:50.129Z,23.10
2018-03-02T17:03:52.839Z,24.90
2018-03-02T17:05:56.764Z,23.93
2018-03-02T17:07:59.444Z,23.40
2018-03-02T17:10:02.144Z,23.33
2018-03-02T17:12:04.821Z,22.87
2018-03-02T17:14:07.487Z,24.10
2018-03-02T17:16:10.251Z,24.57
2018-03-02T17:18:12.936Z,23.07
2018-03-02T17:20:15.650Z,22.63
2018-03-02T17:22:18.320Z,24.47
2018-03-02T17:24:21.110Z,25.13
2018-03-02T17:26:23.870Z,26.47
2018-03-02T17:28:26.602Z,22.90
2018-03-02T17:30:30.110Z,23.90
2018-03-02T17:32:32.923Z,24.07
2018-03-02T17:34:35.644Z,22.97
2018-03-02T17:36:38.342Z,24.63
2018-03-02T17:38:41.118Z,22.93
2018-03-02T17:40:43.916Z,24.10
2018-03-02T17:42:46.562Z,23.90
2018-03-02T17:44:49.251Z,24.23
2018-03-02T17:46:51.949Z,23.20
2018-03-02T17:48:54.625Z,23.77
2018-03-02T17:50:57.306Z,21.50
2018-03-02T17:52:59.960Z,25.30
2018-03-02T17:55:02.681Z,25.20
2018-03-02T17:57:05.349Z,25.87
2018-03-02T17:59:08.023Z,24.80
2018-03-02T18:01:10.693Z,24.67
2018-03-02T18:03:13.352Z,25.47
2018-03-02T18:05:15.997Z,24.37
2018-03-02T18:07:18.746Z,24.60
2018-03-02T18:09:21.418Z,22.53
2018-03-02T18:11:24.097Z,22.00
2018-03-02T18:13:26.824Z,23.87
2018-03-02T18:15:29.488Z,24.87
2018-03-02T18:17:32.220Z,24.87
2018-03-02T18:19:34.880Z,26.10
2018-03-02T18:21:37.560Z,24.73
2018-03-02T18:23:40.266Z,24.77
2018-03-02T18:25:43.709Z,26.97
2018-03-02T18:27:46.402Z,25.30
2018-03-02T18:29:49.655Z,26.47
2018-03-02T18:31:52.308Z,26.33
2018-03-02T18:33:56.131Z,22.23
2018-03-02T18:35:58.805Z,24.13
2018-03-02T18:38:01.679Z,23.23
2018-03-02T18:40:04.436Z,24.83
2018-03-02T18:42:07.101Z,26.03
2018-03-02T18:44:10.735Z,26.40
2018-03-02T18:46:13.403Z,25.80
2018-03-02T18:48:17.441Z,25.37
2018-03-02T18:50:20.138Z,29.40
2018-03-02T18:52:22.788Z,25.33
2018-03-02T18:54:25.478Z,27.50
2018-03-02T18:56:28.148Z,27.50
2018-03-02T18:58:30.864Z,27.40
2018-03-02T19:00:33.545Z,25.53
2018-03-02T19:02:36.203Z,26.83
2018-03-02T19:04:38.885Z,28.50
2018-03-02T19:06:41.585Z,26.23
2018-03-02T19:08:44.253Z,29.13
2018-03-02T19:10:47.416Z,27.10
2018-03-02T19:12:50.165Z,31.43
2018-03-02T19:14:52.853Z,30.77
2018-03-02T19:16:55.502Z,26.47
2018-03-02T19:18:58.149Z,30.30
2018-03-02T19:21:00.864Z,28.90
2018-03-02T19:23:03.534Z,29.10
2018-03-02T19:25:06.997Z,28.80
2018-03-02T19:27:09.716Z,30.20
2018-03-02T19:29:12.382Z,30.30
2018-03-02T19:31:15.060Z,28.87
2018-03-02T19:33:17.832Z,27.83
2018-03-02T19:35:20.571Z,27.93
2018-03-02T19:37:23.238Z,29.33
2018-03-02T19:39:26.082Z,30.00
2018-03-02T19:41:28.756Z,28.13
2018-03-02T19:43:31.435Z,28.00
2018-03-02T19:45:34.199Z,27.93
2018-03-02T19:47:36.899Z,30.60
2018-03-02T19:49:39.536Z,31.63
2018-03-02T19:51:43.038Z,30.83
2018-03-02T19:53:46.438Z,32.20
2018-03-02T19:55:49.279Z,30.97
2018-03-02T19:57:51.984Z,31.70
2018-03-02T19:59:55.585Z,31.43
2018-03-02T20:02:00.137Z,32.50
2018-03-02T20:04:02.827Z,33.90
2018-03-02T20:06:05.495Z,35.20
2018-03-02T20:08:08.200Z,33.27
2018-03-02T20:10:10.874Z,30.43
2018-03-02T20:12:13.623Z,27.93
2018-03-02T20:14:16.569Z,34.30
2018-03-02T20:16:21.119Z,34.10
2018-03-02T20:18:23.805Z,31.97
2018-03-02T20:20:26.475Z,34.20
2018-03-02T20:22:29.180Z,35.63
2018-03-02T20:24:31.890Z,34.53
2018-03-02T20:26:35.305Z,31.50
2018-03-02T20:28:38.012Z,35.53
2018-03-02T20:30:40.658Z,36.27
2018-03-02T20:32:43.473Z,35.20
2018-03-02T20:34:46.162Z,36.97
2018-03-02T20:36:48.827Z,37.90
2018-03-02T20:38:51.519Z,36.10
2018-03-02T20:40:54.260Z,35.53
2018-03-02T20:42:56.941Z,35.13
2018-03-02T20:44:59.594Z,36.40
2018-03-02T20:47:02.259Z,37.37
2018-03-02T20:49:05.083Z,37.67
2018-03-02T20:51:07.813Z,37.70
2018-03-02T20:53:11.407Z,39.90
2018-03-02T20:55:14.913Z,42.40
2018-03-02T20:57:17.595Z,44.50
2018-03-02T20:59:20.313Z,43.67
2018-03-02T21:01:23.758Z,41.47
2018-03-02T21:03:26.423Z,41.67
2018-03-02T21:05:29.893Z,42.93
2018-03-02T21:07:32.704Z,41.23
2018-03-02T21:09:35.524Z,43.73
2018-03-02T21:11:38.169Z,44.10
2018-03-02T21:13:40.873Z,38.07
2018-03-02T21:15:43.639Z,40.60
2018-03-02T21:17:47.154Z,45.53
2018-03-02T21:19:49.918Z,44.27
2018-03-02T21:21:52.670Z,49.33
2018-03-02T21:23:55.685Z,35.10
2018-03-02T21:25:58.365Z,48.50
2018-03-02T21:28:01.029Z,46.40
2018-03-02T21:30:03.755Z,47.87
2018-03-02T21:32:06.424Z,47.43
2018-03-02T21:34:09.159Z,49.57
2018-03-02T21:36:11.888Z,48.17
2018-03-02T21:38:14.556Z,45.67
2018-03-02T21:40:17.266Z,51.63
2018-03-02T21:42:19.935Z,50.10
2018-03-02T21:44:23.360Z,46.70
2018-03-02T21:46:26.034Z,46.60
2018-03-02T21:48:28.803Z,34.07
2018-03-02T21:50:31.527Z,51.63
2018-03-02T21:52:34.642Z,47.30
2018-03-02T21:54:38.211Z,48.33
2018-03-02T21:56:40.941Z,53.17
2018-03-02T21:58:43.847Z,47.30
2018-03-02T22:00:46.597Z,49.03
2018-03-02T22:02:49.338Z,51.87
2018-03-02T22:04:52.190Z,51.13
2018-03-02T22:06:54.871Z,49.30
2018-03-02T22:08:57.540Z,50.70
2018-03-02T22:11:00.193Z,38.47
2018-03-02T22:13:02.965Z,48.93
2018-03-02T22:15:05.646Z,51.80
2018-03-02T22:17:08.391Z,48.47
2018-03-02T22:19:11.843Z,52.27
2018-03-02T22:21:14.537Z,49.80
2018-03-02T22:23:17.212Z,41.93
2018-03-02T22:25:19.898Z,53.03
2018-03-02T22:27:22.574Z,47.03
2018-03-02T22:29:25.300Z,50.30
2018-03-02T22:31:28.007Z,44.10
2018-03-02T22:33:31.624Z,59.13
2018-03-02T22:35:35.056Z,48.33
2018-03-02T22:37:37.777Z,46.23
2018-03-02T22:39:40.815Z,52.63
2018-03-02T22:41:43.970Z,54.07
2018-03-02T22:43:46.985Z,50.83
2018-03-02T22:45:49.680Z,49.27
2018-03-02T22:47:52.378Z,52.10
2018-03-02T22:49:55.051Z,51.10
2018-03-02T22:51:58.087Z,53.40
2018-03-02T22:54:01.535Z,58.30
2018-03-02T22:56:04.225Z,51.73
2018-03-02T22:58:07.053Z,53.50
2018-03-02T23:00:10.049Z,57.40
2018-03-02T23:02:12.697Z,53.07
2018-03-02T23:04:15.445Z,57.60
2018-03-02T23:06:18.120Z,60.17
2018-03-02T23:08:20.883Z,56.87
2018-03-02T23:10:23.582Z,58.00
2018-03-02T23:12:26.261Z,58.83
2018-03-02T23:14:28.977Z,63.47
2018-03-02T23:16:31.678Z,56.63
2018-03-02T23:18:34.370Z,62.17
2018-03-02T23:20:37.072Z,63.03
2018-03-02T23:22:40.203Z,58.47
2018-03-02T23:24:42.909Z,61.27
2018-03-02T23:26:45.561Z,57.20
2018-03-02T23:28:48.441Z,57.90
2018-03-02T23:30:51.230Z,62.17
2018-03-02T23:32:53.891Z,61.40
2018-03-02T23:34:57.384Z,59.83
2018-03-02T23:37:00.037Z,56.90
2018-03-02T23:39:03.551Z,57.40
2018-03-02T23:41:07.053Z,64.77
2018-03-02T23:43:09.726Z,56.17
2018-03-02T23:45:12.430Z,60.37
2018-03-02T23:47:15.125Z,60.87
2018-03-02T23:49:17.792Z,57.63
2018-03-02T23:51:20.488Z,61.27
2018-03-02T23:53:23.179Z,57.37
2018-03-02T23:55:26.800Z,59.30
2018-03-02T23:57:29.480Z,65.50
2018-03-02T23:59:32.153Z,60.13
